sensor_id;sensor_type;location;lat;lon;timestamp;pressure;altitude;pressure_sealevel;temperature;humidity
70240;BME280;57629;52.256;10.414;2022-08-04T00:00:07;100736.69;;;23.74;56.77
70240;BME280;57629;52.256;10.414;2022-08-04T00:01:27;100740.16;;;23.74;56.97
70240;BME280;57629;52.256;10.414;2022-08-04T00:02:37;100734.00;;;23.74;56.74
70240;BME280;57629;52.256;10.414;2022-08-04T00:03:43;100739.38;;;23.74;56.96
70240;BME280;57629;52.256;10.414;2022-08-04T00:04:48;100741.25;;;23.73;56.63
70240;BME280;57629;52.256;10.414;2022-08-04T00:05:58;100734.00;;;23.74;56.83
70240;BME280;57629;52.256;10.414;2022-08-04T00:07:04;100734.00;;;23.74;56.37
70240;BME280;57629;52.256;10.414;2022-08-04T00:08:15;100734.00;;;23.74;56.47
70240;BME280;57629;52.256;10.414;2022-08-04T00:09:25;100734.00;;;23.74;56.50
70240;BME280;57629;52.256;10.414;2022-08-04T00:10:31;100735.91;;;23.73;56.69
70240;BME280;57629;52.256;10.414;2022-08-04T00:11:32;100741.25;;;23.73;56.53
70240;BME280;57629;52.256;10.414;2022-08-04T00:12:36;100734.22;;;23.72;56.68
70240;BME280;57629;52.256;10.414;2022-08-04T00:13:38;100736.91;;;23.72;56.60
70240;BME280;57629;52.256;10.414;2022-08-04T00:14:46;100737.78;;;23.73;56.55
70240;BME280;57629;52.256;10.414;2022-08-04T00:15:51;100748.50;;;23.73;56.57
70240;BME280;57629;52.256;10.414;2022-08-04T00:16:53;100737.78;;;23.73;56.64
70240;BME280;57629;52.256;10.414;2022-08-04T00:17:59;100737.78;;;23.73;56.70
70240;BME280;57629;52.256;10.414;2022-08-04T00:19:03;100734.22;;;23.72;56.61
70240;BME280;57629;52.256;10.414;2022-08-04T00:20:04;100737.78;;;23.73;56.63
70240;BME280;57629;52.256;10.414;2022-08-04T00:21:07;100735.09;;;23.73;56.46
70240;BME280;57629;52.256;10.414;2022-08-04T00:22:10;100738.81;;;23.72;56.42
70240;BME280;57629;52.256;10.414;2022-08-04T00:23:12;100726.19;;;23.72;56.63
70240;BME280;57629;52.256;10.414;2022-08-04T00:24:15;100737.78;;;23.73;56.69
70240;BME280;57629;52.256;10.414;2022-08-04T00:25:16;100734.22;;;23.72;56.75
70240;BME280;57629;52.256;10.414;2022-08-04T00:26:18;100738.00;;;23.71;56.75
70240;BME280;57629;52.256;10.414;2022-08-04T00:27:18;100729.94;;;23.71;56.66
70240;BME280;57629;52.256;10.414;2022-08-04T00:28:20;100736.13;;;23.72;56.49
70240;BME280;57629;52.256;10.414;2022-08-04T00:29:21;100739.09;;;23.70;56.44
70240;BME280;57629;52.256;10.414;2022-08-04T00:30:23;100736.13;;;23.72;56.66
70240;BME280;57629;52.256;10.414;2022-08-04T00:31:25;100736.13;;;23.72;56.44
70240;BME280;57629;52.256;10.414;2022-08-04T00:32:27;100738.00;;;23.71;56.30
70240;BME280;57629;52.256;10.414;2022-08-04T00:33:27;100736.41;;;23.70;56.52
70240;BME280;57629;52.256;10.414;2022-08-04T00:34:30;100736.13;;;23.72;56.35
70240;BME280;57629;52.256;10.414;2022-08-04T00:35:32;100736.41;;;23.70;56.55
70240;BME280;57629;52.256;10.414;2022-08-04T00:36:33;100740.94;;;23.70;56.29
70240;BME280;57629;52.256;10.414;2022-08-04T00:37:36;100737.44;;;23.69;56.55
70240;BME280;57629;52.256;10.414;2022-08-04T00:38:39;100735.31;;;23.71;56.30
70240;BME280;57629;52.256;10.414;2022-08-04T00:39:41;100738.25;;;23.70;56.39
70240;BME280;57629;52.256;10.414;2022-08-04T00:40:48;100739.09;;;23.70;56.33
70240;BME280;57629;52.256;10.414;2022-08-04T00:42:22;100733.72;;;23.70;56.40
70240;BME280;57629;52.256;10.414;2022-08-04T00:43:30;100726.72;;;23.69;56.62
70240;BME280;57629;52.256;10.414;2022-08-04T00:44:42;100732.88;;;23.70;56.70
70240;BME280;57629;52.256;10.414;2022-08-04T00:46:27;100728.63;;;23.69;56.36
70240;BME280;57629;52.256;10.414;2022-08-04T00:47:43;100730.22;;;23.70;56.57
70240;BME280;57629;52.256;10.414;2022-08-04T00:49:16;100739.34;;;23.69;56.50
70240;BME280;57629;52.256;10.414;2022-08-04T00:50:24;100733.97;;;23.69;56.30
70240;BME280;57629;52.256;10.414;2022-08-04T00:51:40;100733.97;;;23.69;56.38
70240;BME280;57629;52.256;10.414;2022-08-04T00:53:04;100730.50;;;23.68;56.66
70240;BME280;57629;52.256;10.414;2022-08-04T00:54:11;100733.19;;;23.68;56.45
70240;BME280;57629;52.256;10.414;2022-08-04T00:55:22;100730.50;;;23.68;56.47
70240;BME280;57629;52.256;10.414;2022-08-04T00:56:40;100729.69;;;23.68;56.65
70240;BME280;57629;52.256;10.414;2022-08-04T00:57:58;100725.13;;;23.68;56.47
70240;BME280;57629;52.256;10.414;2022-08-04T00:59:06;100728.06;;;23.67;56.46
70240;BME280;57629;52.256;10.414;2022-08-04T01:00:12;100735.06;;;23.68;56.58
70240;BME280;57629;52.256;10.414;2022-08-04T01:01:33;100725.38;;;23.67;56.38
70240;BME280;57629;52.256;10.414;2022-08-04T01:02:49;100729.94;;;23.66;56.54
70240;BME280;57629;52.256;10.414;2022-08-04T01:04:02;100725.38;;;23.67;56.75
70240;BME280;57629;52.256;10.414;2022-08-04T01:05:05;100722.72;;;23.67;56.58
70240;BME280;57629;52.256;10.414;2022-08-04T01:06:11;100728.06;;;23.67;56.63
70240;BME280;57629;52.256;10.414;2022-08-04T01:07:30;100729.94;;;23.66;56.68
70240;BME280;57629;52.256;10.414;2022-08-04T01:08:50;100732.63;;;23.66;56.60
70240;BME280;57629;52.256;10.414;2022-08-04T01:09:58;100734.22;;;23.67;56.84
70240;BME280;57629;52.256;10.414;2022-08-04T01:11:08;100729.16;;;23.65;56.33
70240;BME280;57629;52.256;10.414;2022-08-04T01:12:37;100725.63;;;23.65;56.46
70240;BME280;57629;52.256;10.414;2022-08-04T01:13:55;100728.31;;;23.65;56.30
70240;BME280;57629;52.256;10.414;2022-08-04T01:15:04;100721.91;;;23.66;56.31
70240;BME280;57629;52.256;10.414;2022-08-04T01:16:06;100723.78;;;23.65;56.45
70240;BME280;57629;52.256;10.414;2022-08-04T01:17:17;100727.28;;;23.66;56.52
70240;BME280;57629;52.256;10.414;2022-08-04T01:18:21;100723.78;;;23.65;56.32
70240;BME280;57629;52.256;10.414;2022-08-04T01:19:52;100716.81;;;23.64;56.47
70240;BME280;57629;52.256;10.414;2022-08-04T01:21:18;100715.75;;;23.65;56.39
70240;BME280;57629;52.256;10.414;2022-08-04T01:22:49;100719.47;;;23.64;56.52
70240;BME280;57629;52.256;10.414;2022-08-04T01:24:29;100711.44;;;23.64;56.56
70240;BME280;57629;52.256;10.414;2022-08-04T01:26:01;100714.13;;;23.64;56.41
70240;BME280;57629;52.256;10.414;2022-08-04T01:27:10;100719.47;;;23.64;56.43
70240;BME280;57629;52.256;10.414;2022-08-04T01:28:28;100716.81;;;23.64;56.56
70240;BME280;57629;52.256;10.414;2022-08-04T01:29:33;100716.81;;;23.64;56.64
70240;BME280;57629;52.256;10.414;2022-08-04T01:30:39;100718.69;;;23.64;56.41
70240;BME280;57629;52.256;10.414;2022-08-04T01:31:57;100711.44;;;23.64;56.26
70240;BME280;57629;52.256;10.414;2022-08-04T01:33:02;100706.06;;;23.64;56.46
70240;BME280;57629;52.256;10.414;2022-08-04T01:34:05;100715.19;;;23.63;56.19
70240;BME280;57629;52.256;10.414;2022-08-04T01:35:12;100710.63;;;23.64;56.20
70240;BME280;57629;52.256;10.414;2022-08-04T01:36:16;100709.03;;;23.63;56.32
70240;BME280;57629;52.256;10.414;2022-08-04T01:37:34;100710.63;;;23.64;56.26
70240;BME280;57629;52.256;10.414;2022-08-04T01:38:40;100711.44;;;23.64;56.54
70240;BME280;57629;52.256;10.414;2022-08-04T01:39:49;100710.63;;;23.64;56.20
70240;BME280;57629;52.256;10.414;2022-08-04T01:40:51;100711.44;;;23.64;56.40
70240;BME280;57629;52.256;10.414;2022-08-04T01:41:54;100717.88;;;23.63;56.27
70240;BME280;57629;52.256;10.414;2022-08-04T01:42:57;100712.53;;;23.63;56.26
70240;BME280;57629;52.256;10.414;2022-08-04T01:44:01;100706.38;;;23.63;56.17
70240;BME280;57629;52.256;10.414;2022-08-04T01:45:06;100709.84;;;23.63;56.37
70240;BME280;57629;52.256;10.414;2022-08-04T01:46:10;100713.31;;;23.64;56.05
70240;BME280;57629;52.256;10.414;2022-08-04T01:47:12;100714.41;;;23.63;56.06
70240;BME280;57629;52.256;10.414;2022-08-04T01:48:14;100706.38;;;23.63;56.22
70240;BME280;57629;52.256;10.414;2022-08-04T01:49:15;100716.00;;;23.64;56.13
70240;BME280;57629;52.256;10.414;2022-08-04T01:50:16;100712.53;;;23.63;56.35
70240;BME280;57629;52.256;10.414;2022-08-04T01:51:18;100706.38;;;23.63;56.19
70240;BME280;57629;52.256;10.414;2022-08-04T01:52:22;100704.72;;;23.62;56.37
70240;BME280;57629;52.256;10.414;2022-08-04T01:53:29;100710.09;;;23.62;55.96
70240;BME280;57629;52.256;10.414;2022-08-04T01:54:31;100705.53;;;23.62;56.27
70240;BME280;57629;52.256;10.414;2022-08-04T01:55:32;100709.03;;;23.63;56.33
70240;BME280;57629;52.256;10.414;2022-08-04T01:56:34;100710.09;;;23.62;56.42
70240;BME280;57629;52.256;10.414;2022-08-04T01:57:36;100702.84;;;23.62;56.04
70240;BME280;57629;52.256;10.414;2022-08-04T01:58:40;100701.00;;;23.63;56.25
70240;BME280;57629;52.256;10.414;2022-08-04T01:59:44;100702.06;;;23.62;56.26
70240;BME280;57629;52.256;10.414;2022-08-04T02:00:55;100709.28;;;23.61;56.12
70240;BME280;57629;52.256;10.414;2022-08-04T02:01:56;100705.53;;;23.62;56.08
70240;BME280;57629;52.256;10.414;2022-08-04T02:02:57;100707.41;;;23.62;55.99
70240;BME280;57629;52.256;10.414;2022-08-04T02:03:57;100706.63;;;23.61;56.00
70240;BME280;57629;52.256;10.414;2022-08-04T02:04:58;100702.06;;;23.62;56.01
70240;BME280;57629;52.256;10.414;2022-08-04T02:06:06;100704.72;;;23.62;56.16
70240;BME280;57629;52.256;10.414;2022-08-04T02:07:25;100705.03;;;23.60;56.21
70240;BME280;57629;52.256;10.414;2022-08-04T02:08:32;100706.63;;;23.61;55.94
70240;BME280;57629;52.256;10.414;2022-08-04T02:09:40;100699.38;;;23.62;55.97
70240;BME280;57629;52.256;10.414;2022-08-04T02:10:53;100709.28;;;23.61;56.30
70240;BME280;57629;52.256;10.414;2022-08-04T02:12:03;100700.47;;;23.61;56.01
70240;BME280;57629;52.256;10.414;2022-08-04T02:14:28;100708.50;;;23.61;56.19
70240;BME280;57629;52.256;10.414;2022-08-04T02:15:36;100705.81;;;23.61;56.03
70240;BME280;57629;52.256;10.414;2022-08-04T02:16:44;100701.50;;;23.60;56.02
70240;BME280;57629;52.256;10.414;2022-08-04T02:17:56;100693.47;;;23.60;55.84
70240;BME280;57629;52.256;10.414;2022-08-04T02:19:08;100698.81;;;23.60;55.98
70240;BME280;57629;52.256;10.414;2022-08-04T02:20:17;100696.16;;;23.60;55.79
70240;BME280;57629;52.256;10.414;2022-08-04T02:21:23;100698.56;;;23.61;55.89
70240;BME280;57629;52.256;10.414;2022-08-04T02:22:26;100696.97;;;23.60;56.11
70240;BME280;57629;52.256;10.414;2022-08-04T02:23:30;100691.88;;;23.59;56.00
70240;BME280;57629;52.256;10.414;2022-08-04T02:24:31;100686.50;;;23.59;56.06
70240;BME280;57629;52.256;10.414;2022-08-04T02:25:36;100690.78;;;23.60;56.15
70240;BME280;57629;52.256;10.414;2022-08-04T02:26:41;100690.78;;;23.60;55.90
70240;BME280;57629;52.256;10.414;2022-08-04T02:27:55;100693.47;;;23.60;55.88
70240;BME280;57629;52.256;10.414;2022-08-04T02:29:02;100693.47;;;23.60;56.01
70240;BME280;57629;52.256;10.414;2022-08-04T02:30:04;100689.97;;;23.59;55.91
70240;BME280;57629;52.256;10.414;2022-08-04T02:31:15;100686.50;;;23.59;56.31
70240;BME280;57629;52.256;10.414;2022-08-04T02:32:25;100686.50;;;23.59;55.98
70240;BME280;57629;52.256;10.414;2022-08-04T02:33:31;100694.56;;;23.59;55.94
70240;BME280;57629;52.256;10.414;2022-08-04T02:34:39;100692.66;;;23.59;55.87
70240;BME280;57629;52.256;10.414;2022-08-04T02:35:45;100691.06;;;23.58;55.85
70240;BME280;57629;52.256;10.414;2022-08-04T02:36:50;100690.28;;;23.58;56.01
70240;BME280;57629;52.256;10.414;2022-08-04T02:37:57;100690.28;;;23.58;56.10
70240;BME280;57629;52.256;10.414;2022-08-04T02:39:02;100690.28;;;23.58;55.73
70240;BME280;57629;52.256;10.414;2022-08-04T02:40:05;100687.59;;;23.58;55.88
70240;BME280;57629;52.256;10.414;2022-08-04T02:41:08;100687.31;;;23.59;55.96
70240;BME280;57629;52.256;10.414;2022-08-04T02:42:10;100686.75;;;23.57;56.23
70240;BME280;57629;52.256;10.414;2022-08-04T02:43:12;100681.41;;;23.57;55.96
70240;BME280;57629;52.256;10.414;2022-08-04T02:44:20;100686.75;;;23.57;55.96
70240;BME280;57629;52.256;10.414;2022-08-04T02:45:22;100676.88;;;23.58;55.97
70240;BME280;57629;52.256;10.414;2022-08-04T02:46:25;100683.03;;;23.58;55.78
70240;BME280;57629;52.256;10.414;2022-08-04T02:47:28;100682.22;;;23.58;55.95
70240;BME280;57629;52.256;10.414;2022-08-04T02:48:31;100680.59;;;23.57;56.00
70240;BME280;57629;52.256;10.414;2022-08-04T02:49:35;100682.22;;;23.58;56.07
70240;BME280;57629;52.256;10.414;2022-08-04T02:50:36;100684.09;;;23.57;55.76
70240;BME280;57629;52.256;10.414;2022-08-04T02:51:41;100679.81;;;23.56;55.81
70240;BME280;57629;52.256;10.414;2022-08-04T02:52:42;100668.00;;;23.57;56.02
70240;BME280;57629;52.256;10.414;2022-08-04T02:53:45;100679.56;;;23.58;55.78
70240;BME280;57629;52.256;10.414;2022-08-04T02:54:50;100676.03;;;23.57;55.87
70240;BME280;57629;52.256;10.414;2022-08-04T02:55:53;100676.03;;;23.57;55.78
70240;BME280;57629;52.256;10.414;2022-08-04T02:56:56;100675.25;;;23.57;55.75
70240;BME280;57629;52.256;10.414;2022-08-04T02:57:57;100675.25;;;23.57;55.86
70240;BME280;57629;52.256;10.414;2022-08-04T02:59:03;100664.53;;;23.57;55.85
70240;BME280;57629;52.256;10.414;2022-08-04T03:00:06;100673.34;;;23.57;55.93
70240;BME280;57629;52.256;10.414;2022-08-04T03:01:07;100677.13;;;23.56;55.62
70240;BME280;57629;52.256;10.414;2022-08-04T03:02:08;100674.44;;;23.56;55.89
70240;BME280;57629;52.256;10.414;2022-08-04T03:03:19;100681.69;;;23.56;55.71
70240;BME280;57629;52.256;10.414;2022-08-04T03:04:44;100671.75;;;23.56;55.91
70240;BME280;57629;52.256;10.414;2022-08-04T03:06:02;100673.66;;;23.56;55.75
70240;BME280;57629;52.256;10.414;2022-08-04T03:07:52;100671.75;;;23.56;55.97
70240;BME280;57629;52.256;10.414;2022-08-04T03:09:11;100668.28;;;23.56;55.88
70240;BME280;57629;52.256;10.414;2022-08-04T03:10:56;100670.16;;;23.55;55.98
70240;BME280;57629;52.256;10.414;2022-08-04T03:12:19;100669.34;;;23.55;55.67
70240;BME280;57629;52.256;10.414;2022-08-04T03:15:33;100670.97;;;23.56;55.77
70240;BME280;57629;52.256;10.414;2022-08-04T03:16:59;100661.28;;;23.55;55.81
70240;BME280;57629;52.256;10.414;2022-08-04T03:18:31;100678.22;;;23.55;55.70
70240;BME280;57629;52.256;10.414;2022-08-04T03:19:57;100666.66;;;23.55;55.52
70240;BME280;57629;52.256;10.414;2022-08-04T03:21:46;100679.25;;;23.54;55.80
70240;BME280;57629;52.256;10.414;2022-08-04T03:25:00;100677.38;;;23.55;55.50
70240;BME280;57629;52.256;10.414;2022-08-04T03:30:46;100673.09;;;23.54;55.89
70240;BME280;57629;52.256;10.414;2022-08-04T03:32:18;100673.09;;;23.54;55.54
70240;BME280;57629;52.256;10.414;2022-08-04T03:33:44;100678.47;;;23.54;55.74
70240;BME280;57629;52.256;10.414;2022-08-04T03:35:10;100683.03;;;23.53;55.60
70240;BME280;57629;52.256;10.414;2022-08-04T03:38:10;100683.03;;;23.53;55.86
70240;BME280;57629;52.256;10.414;2022-08-04T03:41:12;100682.22;;;23.53;55.76
70240;BME280;57629;52.256;10.414;2022-08-04T03:42:52;100680.34;;;23.53;55.68
70240;BME280;57629;52.256;10.414;2022-08-04T03:44:24;100671.50;;;23.53;55.42
70240;BME280;57629;52.256;10.414;2022-08-04T03:46:07;100677.66;;;23.53;55.60
70240;BME280;57629;52.256;10.414;2022-08-04T03:47:37;100668.81;;;23.53;55.60
70240;BME280;57629;52.256;10.414;2022-08-04T03:48:57;100674.97;;;23.53;55.63
70240;BME280;57629;52.256;10.414;2022-08-04T03:50:41;100674.19;;;23.53;55.54
70240;BME280;57629;52.256;10.414;2022-08-04T03:51:56;100668.81;;;23.53;55.76
70240;BME280;57629;52.256;10.414;2022-08-04T04:18:41;100674.44;;;23.51;55.42
70240;BME280;57629;52.256;10.414;2022-08-04T04:20:07;100670.97;;;23.51;55.50
70240;BME280;57629;52.256;10.414;2022-08-04T04:21:26;100670.13;;;23.50;55.47
70240;BME280;57629;52.256;10.414;2022-08-04T04:22:42;100673.63;;;23.51;55.51
70240;BME280;57629;52.256;10.414;2022-08-04T04:24:00;100669.06;;;23.51;55.42
70240;BME280;57629;52.256;10.414;2022-08-04T04:25:15;100675.50;;;23.50;55.44
70240;BME280;57629;52.256;10.414;2022-08-04T04:26:39;100669.06;;;23.51;55.48
70240;BME280;57629;52.256;10.414;2022-08-04T04:27:58;100674.44;;;23.51;55.32
70240;BME280;57629;52.256;10.414;2022-08-04T04:29:23;100680.59;;;23.52;55.50
70240;BME280;57629;52.256;10.414;2022-08-04T04:30:31;100675.50;;;23.50;55.57
70240;BME280;57629;52.256;10.414;2022-08-04T04:31:58;100677.13;;;23.51;55.42
70240;BME280;57629;52.256;10.414;2022-08-04T04:33:10;100680.06;;;23.50;55.50
70240;BME280;57629;52.256;10.414;2022-08-04T04:34:30;100688.09;;;23.50;55.27
70240;BME280;57629;52.256;10.414;2022-08-04T04:35:40;100680.84;;;23.50;55.42
70240;BME280;57629;52.256;10.414;2022-08-04T04:36:49;100677.13;;;23.51;55.32
70240;BME280;57629;52.256;10.414;2022-08-04T04:38:29;100684.38;;;23.51;55.12
70240;BME280;57629;52.256;10.414;2022-08-04T04:39:44;100682.72;;;23.50;55.45
70240;BME280;57629;52.256;10.414;2022-08-04T04:40:59;100686.22;;;23.50;55.20
70240;BME280;57629;52.256;10.414;2022-08-04T04:42:20;100682.72;;;23.50;55.55
70240;BME280;57629;52.256;10.414;2022-08-04T04:43:41;100690.78;;;23.50;55.38
70240;BME280;57629;52.256;10.414;2022-08-04T04:45:12;100687.28;;;23.49;55.28
70240;BME280;57629;52.256;10.414;2022-08-04T04:46:24;100687.28;;;23.49;55.51
70240;BME280;57629;52.256;10.414;2022-08-04T04:47:36;100682.72;;;23.50;55.37
70240;BME280;57629;52.256;10.414;2022-08-04T04:48:46;100684.63;;;23.49;55.52
70240;BME280;57629;52.256;10.414;2022-08-04T04:50:01;100686.22;;;23.50;55.28
70240;BME280;57629;52.256;10.414;2022-08-04T04:51:09;100684.38;;;23.51;55.47
70240;BME280;57629;52.256;10.414;2022-08-04T04:52:23;100687.03;;;23.51;55.36
70240;BME280;57629;52.256;10.414;2022-08-04T04:53:28;100691.56;;;23.50;55.43
70240;BME280;57629;52.256;10.414;2022-08-04T04:54:37;100689.97;;;23.49;55.49
70240;BME280;57629;52.256;10.414;2022-08-04T04:55:42;100686.22;;;23.50;55.46
70240;BME280;57629;52.256;10.414;2022-08-04T04:56:47;100692.41;;;23.51;55.43
70240;BME280;57629;52.256;10.414;2022-08-04T04:57:51;100690.78;;;23.50;55.38
70240;BME280;57629;52.256;10.414;2022-08-04T04:58:53;100688.63;;;23.47;55.41
70240;BME280;57629;52.256;10.414;2022-08-04T04:59:56;100683.53;;;23.40;55.62
70240;BME280;57629;52.256;10.414;2022-08-04T05:01:33;100680.84;;;23.35;55.77
70240;BME280;57629;52.256;10.414;2022-08-04T05:05:59;100680.81;;;23.25;56.18
70240;BME280;57629;52.256;10.414;2022-08-04T05:09:06;100680.78;;;23.19;56.80
70240;BME280;57629;52.256;10.414;2022-08-04T05:10:21;100683.75;;;23.18;56.96
70240;BME280;57629;52.256;10.414;2022-08-04T05:13:19;100685.88;;;23.16;57.20
70240;BME280;57629;52.256;10.414;2022-08-04T05:14:32;100682.13;;;23.17;57.25
70240;BME280;57629;52.256;10.414;2022-08-04T05:15:36;100682.38;;;23.15;57.58
70240;BME280;57629;52.256;10.414;2022-08-04T05:16:43;100677.03;;;23.15;57.63
70240;BME280;57629;52.256;10.414;2022-08-04T05:17:48;100676.50;;;23.13;57.60
70240;BME280;57629;52.256;10.414;2022-08-04T05:18:57;100685.34;;;23.14;57.63
70240;BME280;57629;52.256;10.414;2022-08-04T05:20:06;100675.69;;;23.13;57.23
70240;BME280;57629;52.256;10.414;2022-08-04T05:22:39;100682.13;;;23.12;57.26
70240;BME280;57629;52.256;10.414;2022-08-04T05:23:43;100682.91;;;23.12;56.95
70240;BME280;57629;52.256;10.414;2022-08-04T05:24:52;100690.16;;;23.12;57.11
70240;BME280;57629;52.256;10.414;2022-08-04T05:25:57;100681.56;;;23.10;57.07
70240;BME280;57629;52.256;10.414;2022-08-04T05:27:01;100684.25;;;23.10;57.29
70240;BME280;57629;52.256;10.414;2022-08-04T05:28:05;100678.09;;;23.09;57.32
70240;BME280;57629;52.256;10.414;2022-08-04T05:29:10;100686.94;;;23.10;57.29
70240;BME280;57629;52.256;10.414;2022-08-04T05:30:13;100680.78;;;23.09;57.42
70240;BME280;57629;52.256;10.414;2022-08-04T05:31:19;100680.53;;;23.11;57.42
70240;BME280;57629;52.256;10.414;2022-08-04T05:32:25;100680.53;;;23.11;57.38
70240;BME280;57629;52.256;10.414;2022-08-04T05:33:32;100678.88;;;23.10;57.41
70240;BME280;57629;52.256;10.414;2022-08-04T05:34:39;100681.03;;;23.08;57.34
70240;BME280;57629;52.256;10.414;2022-08-04T05:35:43;100684.53;;;23.08;57.72
70240;BME280;57629;52.256;10.414;2022-08-04T05:36:47;100682.66;;;23.09;57.47
70240;BME280;57629;52.256;10.414;2022-08-04T05:37:50;100679.16;;;23.08;57.41
70240;BME280;57629;52.256;10.414;2022-08-04T05:38:54;100678.34;;;23.08;57.50
70240;BME280;57629;52.256;10.414;2022-08-04T05:39:57;100683.69;;;23.08;57.44
70240;BME280;57629;52.256;10.414;2022-08-04T05:41:00;100683.69;;;23.08;57.48
70240;BME280;57629;52.256;10.414;2022-08-04T05:42:03;100676.75;;;23.07;57.43
70240;BME280;57629;52.256;10.414;2022-08-04T05:43:05;100679.41;;;23.07;57.45
70240;BME280;57629;52.256;10.414;2022-08-04T05:44:07;100682.91;;;23.07;57.50
70240;BME280;57629;52.256;10.414;2022-08-04T05:45:08;100687.47;;;23.07;57.52
70240;BME280;57629;52.256;10.414;2022-08-04T05:46:11;100680.22;;;23.07;57.57
70240;BME280;57629;52.256;10.414;2022-08-04T05:47:12;100686.38;;;23.08;57.68
70240;BME280;57629;52.256;10.414;2022-08-04T05:48:14;100681.84;;;23.08;57.71
70240;BME280;57629;52.256;10.414;2022-08-04T05:49:16;100681.03;;;23.08;57.95
70240;BME280;57629;52.256;10.414;2022-08-04T05:50:17;100687.47;;;23.07;57.64
70240;BME280;57629;52.256;10.414;2022-08-04T05:51:18;100677.53;;;23.07;57.93
70240;BME280;57629;52.256;10.414;2022-08-04T05:52:23;100679.97;;;23.09;57.92
70240;BME280;57629;52.256;10.414;2022-08-04T05:53:24;100684.25;;;23.10;58.10
70240;BME280;57629;52.256;10.414;2022-08-04T05:54:27;100680.75;;;22.99;57.31
70240;BME280;57629;52.256;10.414;2022-08-04T05:55:28;100679.19;;;22.61;56.98
70240;BME280;57629;52.256;10.414;2022-08-04T05:56:30;100678.88;;;22.14;56.88
70240;BME280;57629;52.256;10.414;2022-08-04T05:57:31;100674.34;;;21.83;56.72
70240;BME280;57629;52.256;10.414;2022-08-04T05:58:33;100677.09;;;21.61;56.83
70240;BME280;57629;52.256;10.414;2022-08-04T05:59:37;100675.09;;;21.46;56.40
70240;BME280;57629;52.256;10.414;2022-08-04T06:00:40;100671.19;;;21.32;55.90
70240;BME280;57629;52.256;10.414;2022-08-04T06:01:42;100676.97;;;21.23;55.98
70240;BME280;57629;52.256;10.414;2022-08-04T06:02:47;100671.28;;;21.15;56.08
70240;BME280;57629;52.256;10.414;2022-08-04T06:03:49;100672.81;;;21.11;55.70
70240;BME280;57629;52.256;10.414;2022-08-04T06:04:50;100673.31;;;21.07;55.57
70240;BME280;57629;52.256;10.414;2022-08-04T06:05:53;100664.53;;;21.07;55.93
70240;BME280;57629;52.256;10.414;2022-08-04T06:06:56;100663.38;;;21.03;55.37
70240;BME280;57629;52.256;10.414;2022-08-04T06:07:58;100666.13;;;21.08;55.62
70240;BME280;57629;52.256;10.414;2022-08-04T06:08:58;100663.44;;;21.08;55.51
70240;BME280;57629;52.256;10.414;2022-08-04T06:09:59;100667.19;;;21.07;55.22
70240;BME280;57629;52.256;10.414;2022-08-04T06:11:04;100666.84;;;21.03;55.37
70240;BME280;57629;52.256;10.414;2022-08-04T06:12:07;100664.47;;;21.02;55.21
70240;BME280;57629;52.256;10.414;2022-08-04T06:13:11;100671.34;;;20.98;55.32
70240;BME280;57629;52.256;10.414;2022-08-04T06:14:14;100667.06;;;20.97;55.19
70240;BME280;57629;52.256;10.414;2022-08-04T06:15:17;100671.78;;;20.90;55.20
70240;BME280;57629;52.256;10.414;2022-08-04T06:16:22;100668.84;;;20.91;55.10
70240;BME280;57629;52.256;10.414;2022-08-04T06:17:31;100671.28;;;20.93;54.97
70240;BME280;57629;52.256;10.414;2022-08-04T06:18:32;100672.66;;;20.95;54.93
70240;BME280;57629;52.256;10.414;2022-08-04T06:19:36;100676.91;;;20.96;55.29
70240;BME280;57629;52.256;10.414;2022-08-04T06:20:41;100666.25;;;20.96;54.99
70240;BME280;57629;52.256;10.414;2022-08-04T06:21:45;100669.97;;;21.17;56.18
70240;BME280;57629;52.256;10.414;2022-08-04T06:22:51;100662.59;;;21.52;55.90
70240;BME280;57629;52.256;10.414;2022-08-04T06:23:54;100657.47;;;21.77;56.15
70240;BME280;57629;52.256;10.414;2022-08-04T06:24:57;100659.50;;;21.97;55.94
70240;BME280;57629;52.256;10.414;2022-08-04T06:25:59;100669.22;;;22.13;55.31
70240;BME280;57629;52.256;10.414;2022-08-04T06:27:03;100674.19;;;22.27;55.02
70240;BME280;57629;52.256;10.414;2022-08-04T06:28:05;100665.97;;;22.39;54.23
70240;BME280;57629;52.256;10.414;2022-08-04T06:29:08;100670.84;;;22.47;53.88
70240;BME280;57629;52.256;10.414;2022-08-04T06:30:12;100666.06;;;22.54;53.74
70240;BME280;57629;52.256;10.414;2022-08-04T06:31:13;100667.41;;;22.56;54.15
70240;BME280;57629;52.256;10.414;2022-08-04T06:32:14;100665.28;;;22.58;54.33
70240;BME280;57629;52.256;10.414;2022-08-04T06:33:17;100665.81;;;22.61;54.45
70240;BME280;57629;52.256;10.414;2022-08-04T06:34:18;100671.97;;;22.61;54.35
70240;BME280;57629;52.256;10.414;2022-08-04T06:35:19;100666.09;;;22.64;54.33
70240;BME280;57629;52.256;10.414;2022-08-04T06:36:20;100661.56;;;22.65;54.20
70240;BME280;57629;52.256;10.414;2022-08-04T06:37:22;100664.78;;;22.67;54.19
70240;BME280;57629;52.256;10.414;2022-08-04T06:38:24;100661.56;;;22.70;54.16
70240;BME280;57629;52.256;10.414;2022-08-04T06:39:27;100658.66;;;22.71;53.83
70240;BME280;57629;52.256;10.414;2022-08-04T06:40:29;100660.00;;;22.74;53.92
70240;BME280;57629;52.256;10.414;2022-08-04T06:41:31;100659.72;;;22.75;53.78
70240;BME280;57629;52.256;10.414;2022-08-04T06:42:33;100663.75;;;22.78;53.79
70240;BME280;57629;52.256;10.414;2022-08-04T06:43:35;100661.91;;;22.78;53.93